createdAt,value
2018-04-14T00:00:17.399Z,99.90
2018-04-14T00:02:44.902Z,99.90
2018-04-14T00:05:12.360Z,99.90
2018-04-14T00:07:39.822Z,99.90
2018-04-14T00:10:07.284Z,99.90
2018-04-14T00:12:34.782Z,99.90
2018-04-14T00:15:02.267Z,99.90
2018-04-14T00:17:29.747Z,99.90
2018-04-14T00:19:57.212Z,99.90
2018-04-14T00:22:24.664Z,99.90
2018-04-14T00:24:52.124Z,99.90
2018-04-14T00:27:19.580Z,99.90
2018-04-14T00:29:47.103Z,99.90
2018-04-14T00:32:15.347Z,99.90
2018-04-14T00:34:42.824Z,99.90
2018-04-14T00:37:10.317Z,99.90
2018-04-14T00:39:37.811Z,99.90
2018-04-14T00:42:05.228Z,99.90
2018-04-14T00:44:32.717Z,99.90
2018-04-14T00:47:00.180Z,99.90
2018-04-14T00:49:27.632Z,99.90
2018-04-14T00:51:55.092Z,99.90
2018-04-14T00:54:22.560Z,99.90
2018-04-14T00:56:50.038Z,99.90
2018-04-14T00:59:17.527Z,99.90
2018-04-14T01:01:44.984Z,99.90
2018-04-14T01:04:12.465Z,99.90
2018-04-14T01:06:39.920Z,99.90
2018-04-14T01:09:07.420Z,99.90
2018-04-14T01:11:34.899Z,99.90
2018-04-14T01:14:02.453Z,99.90
2018-04-14T01:16:30.026Z,99.90
2018-04-14T01:18:57.502Z,99.90
2018-04-14T01:21:24.982Z,99.90
2018-04-14T01:23:52.446Z,99.90
2018-04-14T01:26:19.930Z,99.90
2018-04-14T01:28:48.180Z,99.90
2018-04-14T01:31:15.649Z,99.90
2018-04-14T01:33:43.116Z,99.90
2018-04-14T01:36:10.605Z,99.90
2018-04-14T01:38:38.063Z,99.90
2018-04-14T01:41:05.545Z,99.90
2018-04-14T01:43:33.031Z,99.90
2018-04-14T01:46:00.584Z,99.90
2018-04-14T01:48:28.153Z,99.90
2018-04-14T01:50:55.727Z,99.90
2018-04-14T01:53:23.303Z,99.90
2018-04-14T01:55:50.870Z,99.90
2018-04-14T01:58:18.346Z,99.90
2018-04-14T02:00:45.902Z,99.90
2018-04-14T02:03:13.364Z,99.90
2018-04-14T02:05:40.961Z,99.90
2018-04-14T02:08:08.515Z,99.90
2018-04-14T02:10:35.980Z,99.90
2018-04-14T02:13:03.449Z,99.90
2018-04-14T02:15:30.900Z,99.90
2018-04-14T02:17:58.367Z,99.90
2018-04-14T02:20:25.866Z,99.90
2018-04-14T02:22:53.336Z,99.90
2018-04-14T02:25:20.923Z,99.90
2018-04-14T02:27:49.892Z,99.90
2018-04-14T02:30:17.359Z,99.90
2018-04-14T02:32:44.866Z,99.90
2018-04-14T02:35:12.335Z,99.90
2018-04-14T02:37:39.887Z,99.90
2018-04-14T02:40:07.350Z,99.90
2018-04-14T02:42:34.821Z,99.90
2018-04-14T02:45:02.310Z,99.90
2018-04-14T02:47:29.773Z,99.90
2018-04-14T02:49:57.245Z,99.90
2018-04-14T02:52:24.789Z,99.90
2018-04-14T02:54:52.276Z,99.90
2018-04-14T02:57:19.758Z,99.90
2018-04-14T02:59:47.221Z,99.90
2018-04-14T03:02:14.682Z,99.90
2018-04-14T03:04:42.144Z,99.90
2018-04-14T03:07:09.686Z,99.90
2018-04-14T03:09:37.890Z,99.90
2018-04-14T03:12:05.368Z,99.90
2018-04-14T03:14:32.815Z,99.90
2018-04-14T03:17:00.294Z,99.90
2018-04-14T03:19:27.806Z,99.90
2018-04-14T03:21:55.374Z,99.90
2018-04-14T03:24:22.838Z,99.90
2018-04-14T03:26:50.399Z,99.90
2018-04-14T03:29:17.872Z,99.90
2018-04-14T03:31:45.358Z,99.90
2018-04-14T03:34:12.832Z,99.90
2018-04-14T03:36:40.566Z,99.90
2018-04-14T03:39:08.019Z,99.90
2018-04-14T03:41:35.538Z,99.90
2018-04-14T03:44:02.990Z,99.90
2018-04-14T03:46:30.445Z,99.90
2018-04-14T03:48:57.936Z,99.90
2018-04-14T03:51:25.412Z,99.90
2018-04-14T03:53:52.898Z,99.90
2018-04-14T03:56:20.366Z,99.90
2018-04-14T03:58:47.912Z,99.90
2018-04-14T04:01:15.360Z,99.90
2018-04-14T04:03:42.866Z,99.90
2018-04-14T04:06:10.338Z,99.90
2018-04-14T04:08:38.006Z,99.90
2018-04-14T04:11:05.478Z,99.90
2018-04-14T04:13:32.958Z,99.90
2018-04-14T04:16:00.447Z,99.90
2018-04-14T04:18:39.806Z,99.90
2018-04-14T04:21:34.676Z,99.90
2018-04-14T04:24:14.034Z,99.90
2018-04-14T04:26:41.602Z,99.90
2018-04-14T04:29:09.177Z,99.90
2018-04-14T04:31:36.746Z,99.90
2018-04-14T04:34:04.301Z,99.90
2018-04-14T04:36:32.630Z,99.90
2018-04-14T04:39:00.096Z,99.90
2018-04-14T04:41:27.564Z,99.90
2018-04-14T04:43:55.016Z,99.90
2018-04-14T04:46:22.475Z,99.90
2018-04-14T04:48:49.981Z,99.90
2018-04-14T04:51:17.409Z,99.90
2018-04-14T04:53:44.892Z,99.90
2018-04-14T04:56:12.586Z,99.90
2018-04-14T04:58:40.136Z,99.90
2018-04-14T05:01:07.613Z,99.90
2018-04-14T05:03:35.884Z,99.90
2018-04-14T05:06:03.356Z,99.90
2018-04-14T05:08:30.832Z,99.90
2018-04-14T05:10:58.410Z,99.90
2018-04-14T05:13:25.872Z,99.90
2018-04-14T05:15:53.343Z,99.90
2018-04-14T05:18:20.920Z,99.90
2018-04-14T05:20:48.426Z,99.90
2018-04-14T05:23:16.662Z,99.90
2018-04-14T05:25:44.104Z,99.90
2018-04-14T05:28:11.586Z,99.90
2018-04-14T05:30:39.063Z,99.90
2018-04-14T05:33:06.566Z,99.90
2018-04-14T05:35:34.139Z,99.90
2018-04-14T05:38:01.710Z,99.90
2018-04-14T05:40:29.175Z,99.90
2018-04-14T05:42:56.767Z,99.90
2018-04-14T05:45:24.221Z,99.90
2018-04-14T05:47:51.768Z,99.90
2018-04-14T05:50:19.254Z,99.90
2018-04-14T05:52:46.722Z,99.90
2018-04-14T05:55:14.198Z,99.90
2018-04-14T05:57:41.682Z,99.90
2018-04-14T06:00:09.238Z,99.90
2018-04-14T06:02:36.795Z,99.90
2018-04-14T06:05:04.254Z,99.90
2018-04-14T06:07:31.722Z,99.90
2018-04-14T06:09:59.215Z,99.90
2018-04-14T06:12:26.771Z,99.90
2018-04-14T06:14:54.265Z,99.90
2018-04-14T06:17:21.715Z,99.90
2018-04-14T06:19:49.178Z,99.90
2018-04-14T06:22:16.726Z,99.90
2018-04-14T06:24:44.898Z,99.90
2018-04-14T06:27:12.522Z,99.90
2018-04-14T06:29:39.996Z,99.90
2018-04-14T06:32:07.459Z,99.90
2018-04-14T06:34:34.922Z,99.90
2018-04-14T06:37:02.377Z,99.90
2018-04-14T06:39:29.823Z,99.90
2018-04-14T06:41:57.298Z,99.90
2018-04-14T06:44:24.858Z,99.90
2018-04-14T06:46:52.295Z,99.90
2018-04-14T06:49:19.860Z,99.90
2018-04-14T06:51:47.413Z,99.90
2018-04-14T06:54:14.859Z,99.90
2018-04-14T06:56:42.328Z,99.90
2018-04-14T06:59:09.815Z,99.90
2018-04-14T07:01:37.269Z,99.90
2018-04-14T07:04:04.728Z,99.90
2018-04-14T07:06:32.202Z,99.90
2018-04-14T07:08:59.695Z,99.90
2018-04-14T07:11:27.178Z,99.90
2018-04-14T07:13:54.660Z,99.90
2018-04-14T07:16:22.113Z,99.90
2018-04-14T07:18:49.578Z,99.90
2018-04-14T07:21:17.044Z,99.90
2018-04-14T07:23:44.510Z,99.90
2018-04-14T07:26:12.002Z,99.90
2018-04-14T07:28:39.468Z,99.90
2018-04-14T07:31:06.920Z,99.90
2018-04-14T07:33:34.395Z,99.90
2018-04-14T07:36:01.871Z,99.90
2018-04-14T07:38:29.335Z,99.90
2018-04-14T07:40:56.827Z,99.90
2018-04-14T07:43:24.286Z,99.90
2018-04-14T07:45:51.756Z,99.90
2018-04-14T07:48:19.211Z,99.90
2018-04-14T07:50:46.660Z,99.90
2018-04-14T07:53:14.248Z,99.90
2018-04-14T07:55:41.722Z,99.90
2018-04-14T07:58:09.188Z,99.90
2018-04-14T08:00:36.654Z,99.90
2018-04-14T08:03:04.127Z,99.90
2018-04-14T08:05:31.591Z,99.90
2018-04-14T08:07:59.082Z,99.90
2018-04-14T08:10:26.535Z,99.90
2018-04-14T08:12:54.074Z,99.90
2018-04-14T08:15:21.580Z,99.90
2018-04-14T08:17:49.066Z,99.90
2018-04-14T08:20:16.531Z,99.90
2018-04-14T08:22:44.037Z,99.90
2018-04-14T08:25:12.268Z,99.90
2018-04-14T08:27:39.741Z,99.90
2018-04-14T08:30:07.271Z,99.90
2018-04-14T08:32:34.718Z,99.90
2018-04-14T08:35:02.191Z,99.90
2018-04-14T08:37:29.722Z,99.90
2018-04-14T08:39:57.104Z,99.90
2018-04-14T08:42:24.560Z,99.90
2018-04-14T08:44:52.008Z,99.90
2018-04-14T08:47:19.485Z,99.90
2018-04-14T08:49:46.934Z,99.90
2018-04-14T08:52:14.409Z,99.90
2018-04-14T08:54:41.932Z,99.90
2018-04-14T08:57:09.476Z,99.90
2018-04-14T08:59:36.982Z,99.90
2018-04-14T09:02:04.440Z,99.90
2018-04-14T09:04:31.988Z,99.90
2018-04-14T09:06:59.483Z,99.90
2018-04-14T09:09:27.028Z,99.90
2018-04-14T09:11:54.500Z,99.90
2018-04-14T09:14:21.956Z,99.90
2018-04-14T09:16:49.412Z,99.90
2018-04-14T09:19:16.931Z,99.90
2018-04-14T09:21:44.410Z,99.90
2018-04-14T09:24:11.872Z,99.90
2018-04-14T09:26:39.342Z,99.90
2018-04-14T09:29:06.800Z,99.90
2018-04-14T09:31:34.290Z,99.90
2018-04-14T09:34:01.738Z,99.90
2018-04-14T09:36:29.198Z,99.90
2018-04-14T09:38:56.668Z,99.90
2018-04-14T09:41:24.129Z,99.90
2018-04-14T09:43:51.572Z,99.90
2018-04-14T09:46:19.028Z,99.90
2018-04-14T09:48:47.276Z,99.90
2018-04-14T09:51:14.862Z,99.90
2018-04-14T09:53:42.419Z,99.90
2018-04-14T09:56:09.869Z,99.90
2018-04-14T09:58:37.316Z,99.90
2018-04-14T10:01:11.263Z,99.90
2018-04-14T10:03:38.707Z,99.90
2018-04-14T10:06:06.165Z,99.90
2018-04-14T10:08:33.699Z,99.90
2018-04-14T10:11:01.252Z,99.90
2018-04-14T10:13:28.734Z,99.90
2018-04-14T10:15:56.192Z,99.90
2018-04-14T10:18:23.641Z,99.90
2018-04-14T10:20:51.114Z,99.90
2018-04-14T10:23:18.586Z,99.90
2018-04-14T10:25:46.054Z,99.90
2018-04-14T10:28:13.536Z,99.90
2018-04-14T10:30:40.996Z,99.90
2018-04-14T10:33:08.488Z,99.90
2018-04-14T10:35:36.040Z,99.90
2018-04-14T10:38:03.561Z,99.90
2018-04-14T10:40:31.085Z,99.90
2018-04-14T10:42:58.545Z,99.90
2018-04-14T10:45:26.046Z,99.90
2018-04-14T10:47:53.609Z,99.90
2018-04-14T10:50:21.164Z,99.90
2018-04-14T10:52:48.636Z,99.90
2018-04-14T10:55:16.108Z,99.90
2018-04-14T10:57:43.665Z,99.90
2018-04-14T11:00:11.159Z,99.90
2018-04-14T11:02:38.616Z,99.90
2018-04-14T11:05:06.114Z,99.90
2018-04-14T11:07:33.660Z,99.90
2018-04-14T11:10:01.136Z,99.90
2018-04-14T11:12:28.580Z,99.90
2018-04-14T11:14:56.090Z,99.90
2018-04-14T11:17:23.640Z,99.90
2018-04-14T11:19:51.127Z,99.90
2018-04-14T11:22:18.594Z,99.90
2018-04-14T11:24:46.081Z,99.90
2018-04-14T11:27:13.532Z,99.90
2018-04-14T11:29:40.984Z,99.90
2018-04-14T11:32:08.623Z,99.90
2018-04-14T11:34:36.823Z,99.90
2018-04-14T11:37:04.296Z,99.90
2018-04-14T11:39:31.814Z,99.90
2018-04-14T11:41:59.278Z,99.90
2018-04-14T11:44:26.742Z,99.90
2018-04-14T11:46:54.207Z,99.90
2018-04-14T11:49:21.694Z,99.90
2018-04-14T11:51:49.132Z,99.90
2018-04-14T11:54:16.620Z,99.90
2018-04-14T11:56:45.601Z,99.90
2018-04-14T11:59:13.113Z,99.90
2018-04-14T12:01:40.568Z,99.90
2018-04-14T12:04:08.025Z,99.90
2018-04-14T12:06:35.486Z,99.90
2018-04-14T12:09:02.944Z,99.90
2018-04-14T12:11:30.414Z,99.90
2018-04-14T12:13:57.861Z,99.90
2018-04-14T12:16:25.372Z,99.90
2018-04-14T12:18:52.824Z,99.90
2018-04-14T12:21:20.290Z,99.90
2018-04-14T12:23:47.791Z,99.90
2018-04-14T12:26:15.258Z,99.90
2018-04-14T12:28:42.747Z,99.90
2018-04-14T12:31:10.261Z,99.90
2018-04-14T12:33:37.708Z,99.90
2018-04-14T12:36:05.943Z,97.60
2018-04-14T12:38:33.411Z,97.60
2018-04-14T12:41:00.859Z,98.10
2018-04-14T12:43:28.318Z,99.90
2018-04-14T12:45:55.803Z,98.90
2018-04-14T12:48:23.252Z,98.60
2018-04-14T12:50:50.721Z,99.40
2018-04-14T12:53:18.182Z,98.90
2018-04-14T12:55:46.404Z,81.20
2018-04-14T12:58:13.878Z,81.10
2018-04-14T13:00:41.334Z,74.80
2018-04-14T13:03:08.819Z,70.50
2018-04-14T13:05:36.282Z,63.00
2018-04-14T13:08:03.772Z,61.80
2018-04-14T13:10:31.246Z,61.90
2018-04-14T13:12:58.727Z,60.00
2018-04-14T13:15:26.203Z,57.00
2018-04-14T13:17:53.764Z,55.70
2018-04-14T13:20:21.234Z,56.00
2018-04-14T13:22:48.746Z,54.70
2018-04-14T13:25:16.278Z,55.80
2018-04-14T13:27:43.839Z,54.50
2018-04-14T13:30:11.312Z,54.10
2018-04-14T13:32:38.874Z,51.40
2018-04-14T13:35:06.346Z,49.50
2018-04-14T13:37:33.808Z,49.20
2018-04-14T13:40:01.270Z,50.00
2018-04-14T13:42:28.749Z,49.50
2018-04-14T13:44:56.196Z,48.80
2018-04-14T13:47:23.652Z,47.40
2018-04-14T13:49:51.108Z,47.00
2018-04-14T13:52:18.555Z,49.70
2018-04-14T13:54:46.802Z,48.40
2018-04-14T13:57:14.248Z,48.00
2018-04-14T13:59:41.726Z,47.80
2018-04-14T14:02:09.185Z,46.30
2018-04-14T14:04:36.660Z,46.60
2018-04-14T14:07:04.150Z,46.50
2018-04-14T14:09:31.595Z,46.20
2018-04-14T14:11:59.052Z,43.40
2018-04-14T14:14:26.515Z,42.50
2018-04-14T14:16:55.791Z,40.70
2018-04-14T14:19:23.252Z,40.70
2018-04-14T14:21:50.813Z,39.10
2018-04-14T14:24:18.382Z,37.00
2018-04-14T14:26:45.823Z,38.00
2018-04-14T14:29:13.291Z,39.30
2018-04-14T14:31:40.762Z,40.90
2018-04-14T14:34:08.244Z,38.80
2018-04-14T14:36:35.728Z,38.70
2018-04-14T14:39:03.187Z,37.80
2018-04-14T14:41:30.652Z,36.70
2018-04-14T14:43:58.120Z,37.20
2018-04-14T14:46:25.572Z,37.90
2018-04-14T14:48:53.040Z,37.50
2018-04-14T14:51:20.507Z,36.40
2018-04-14T14:53:47.979Z,36.00
2018-04-14T14:56:15.449Z,36.60
2018-04-14T14:58:42.914Z,35.70
2018-04-14T15:01:11.139Z,35.50
2018-04-14T15:03:38.605Z,35.50
2018-04-14T15:06:06.100Z,34.70
2018-04-14T15:08:35.147Z,35.10
2018-04-14T15:11:03.390Z,34.40
2018-04-14T15:13:30.939Z,34.40
2018-04-14T15:15:58.392Z,34.70
2018-04-14T15:18:25.847Z,34.60
2018-04-14T15:20:53.314Z,34.50
2018-04-14T15:23:20.771Z,34.10
2018-04-14T15:25:48.979Z,33.30
2018-04-14T15:28:16.467Z,33.30
2018-04-14T15:30:43.942Z,33.50
2018-04-14T15:33:11.385Z,33.50
2018-04-14T15:35:38.951Z,34.10
2018-04-14T15:38:06.408Z,34.40
2018-04-14T15:40:34.652Z,34.30
2018-04-14T15:43:02.175Z,34.20
2018-04-14T15:45:30.400Z,34.90
2018-04-14T15:47:57.937Z,34.90
2018-04-14T15:50:25.399Z,34.80
2018-04-14T15:52:52.858Z,35.10
2018-04-14T15:55:21.082Z,35.90
2018-04-14T15:57:48.582Z,35.80
2018-04-14T16:00:16.158Z,35.80
2018-04-14T16:02:43.670Z,35.80
2018-04-14T16:05:11.922Z,36.50
2018-04-14T16:07:39.394Z,36.50
2018-04-14T16:10:06.387Z,36.80
2018-04-14T16:12:33.391Z,38.10
2018-04-14T16:15:00.478Z,39.70
2018-04-14T16:17:27.490Z,41.30
2018-04-14T16:19:54.510Z,42.50
2018-04-14T16:22:22.280Z,44.20
2018-04-14T16:24:50.523Z,45.50
2018-04-14T16:27:18.011Z,45.50
2018-04-14T16:29:45.572Z,45.90
2018-04-14T16:32:12.590Z,46.10
2018-04-14T16:34:39.618Z,45.70
2018-04-14T16:37:06.643Z,45.70
2018-04-14T16:39:33.736Z,44.80
2018-04-14T16:42:00.751Z,44.50
2018-04-14T16:44:27.772Z,44.00
2018-04-14T16:46:55.649Z,43.20
2018-04-14T16:49:22.765Z,43.20
2018-04-14T16:51:49.735Z,43.60
2018-04-14T16:54:16.795Z,43.70
2018-04-14T16:56:43.877Z,44.10
2018-04-14T16:59:10.889Z,44.40
2018-04-14T17:01:38.002Z,45.70
2018-04-14T17:04:06.224Z,46.20
2018-04-14T17:06:33.736Z,46.10
2018-04-14T17:09:01.211Z,47.30
2018-04-14T17:11:28.656Z,48.80
2018-04-14T17:13:56.143Z,49.10
2018-04-14T17:16:23.161Z,49.20
2018-04-14T17:18:50.181Z,49.80
2018-04-14T17:21:17.194Z,51.10
2018-04-14T17:23:44.187Z,51.50
2018-04-14T17:26:11.211Z,52.00
2018-04-14T17:28:38.219Z,53.10
2018-04-14T17:31:05.222Z,53.30
2018-04-14T17:33:32.235Z,54.10
2018-04-14T17:35:59.247Z,55.60
2018-04-14T17:38:26.252Z,57.00
2018-04-14T17:40:53.262Z,58.50
2018-04-14T17:43:20.282Z,61.40
2018-04-14T17:45:48.132Z,72.40
2018-04-14T17:48:15.308Z,72.30
2018-04-14T17:50:42.363Z,76.40
2018-04-14T17:53:09.372Z,83.60
2018-04-14T17:55:36.482Z,90.60
2018-04-14T17:58:03.546Z,95.60
2018-04-14T18:00:30.997Z,98.80
2018-04-14T18:02:58.468Z,99.90
2018-04-14T18:05:25.911Z,99.90
2018-04-14T18:07:53.389Z,99.90
2018-04-14T18:10:20.844Z,99.90
2018-04-14T18:12:48.315Z,99.90
2018-04-14T18:15:15.814Z,99.90
2018-04-14T18:17:43.283Z,99.90
2018-04-14T18:20:10.743Z,99.90
2018-04-14T18:22:38.198Z,99.90
2018-04-14T18:25:05.663Z,99.90
2018-04-14T18:27:33.109Z,99.90
2018-04-14T18:30:00.655Z,99.90
2018-04-14T18:32:28.905Z,99.90
2018-04-14T18:34:56.368Z,99.90
2018-04-14T18:37:23.820Z,99.90
2018-04-14T18:39:51.282Z,99.90
2018-04-14T18:42:18.738Z,99.90
2018-04-14T18:44:46.988Z,99.90
2018-04-14T18:47:14.458Z,99.90
2018-04-14T18:49:41.968Z,99.90
2018-04-14T18:52:09.493Z,99.90
2018-04-14T18:54:36.955Z,99.90
2018-04-14T18:57:04.417Z,99.90
2018-04-14T18:59:31.911Z,99.90
2018-04-14T19:01:59.470Z,99.90
2018-04-14T19:07:17.550Z,99.90
2018-04-14T19:09:45.009Z,99.90
2018-04-14T19:12:12.513Z,99.90
2018-04-14T19:14:39.983Z,99.90
2018-04-14T19:17:07.433Z,99.90
2018-04-14T19:19:35.003Z,99.90
2018-04-14T19:22:02.470Z,99.90
2018-04-14T19:24:30.056Z,99.90
2018-04-14T19:26:57.511Z,99.90
2018-04-14T19:29:25.090Z,99.90
2018-04-14T19:31:52.571Z,99.90
2018-04-14T19:34:20.143Z,99.90
2018-04-14T19:36:47.706Z,99.90
2018-04-14T19:39:15.374Z,99.90
2018-04-14T19:41:42.831Z,99.90
2018-04-14T19:44:10.304Z,99.90
2018-04-14T19:46:37.770Z,99.90
2018-04-14T19:49:06.055Z,99.90
2018-04-14T19:51:33.508Z,99.90
2018-04-14T19:54:01.015Z,99.90
2018-04-14T19:56:28.576Z,99.90
2018-04-14T19:58:56.044Z,99.90
2018-04-14T20:01:23.517Z,99.90
2018-04-14T20:03:50.968Z,99.90
2018-04-14T20:06:18.435Z,99.90
2018-04-14T20:08:45.924Z,99.90
2018-04-14T20:11:13.405Z,99.90
2018-04-14T20:13:40.879Z,99.90
2018-04-14T20:16:08.358Z,99.90
2018-04-14T20:18:36.571Z,99.90
2018-04-14T20:21:04.088Z,99.90
2018-04-14T20:23:31.575Z,99.90
2018-04-14T20:25:59.142Z,99.90
2018-04-14T20:28:26.604Z,99.90
2018-04-14T20:30:54.060Z,99.90
2018-04-14T20:33:21.561Z,99.90
2018-04-14T20:35:49.012Z,99.90
2018-04-14T20:38:16.489Z,99.90
2018-04-14T20:40:44.062Z,99.90
2018-04-14T20:43:11.539Z,99.90
2018-04-14T20:45:39.007Z,99.90
2018-04-14T20:48:06.484Z,99.90
2018-04-14T20:50:34.028Z,99.90
2018-04-14T20:53:01.503Z,99.90
2018-04-14T20:55:28.966Z,99.90
2018-04-14T20:57:56.439Z,99.90
2018-04-14T21:00:23.917Z,99.90
2018-04-14T21:02:51.367Z,99.90
2018-04-14T21:05:18.867Z,99.90
2018-04-14T21:07:46.347Z,99.90
2018-04-14T21:10:14.579Z,99.90
2018-04-14T21:12:42.095Z,99.90
2018-04-14T21:15:09.643Z,99.90
2018-04-14T21:17:37.117Z,99.90
2018-04-14T21:20:04.608Z,99.90
2018-04-14T21:22:32.065Z,99.90
2018-04-14T21:25:00.261Z,99.90
2018-04-14T21:27:27.729Z,99.90
2018-04-14T21:29:55.188Z,99.90
2018-04-14T21:32:22.658Z,99.90
2018-04-14T21:34:50.105Z,99.90
2018-04-14T21:37:17.586Z,99.90
2018-04-14T21:39:45.051Z,99.90
2018-04-14T21:42:12.515Z,99.90
2018-04-14T21:44:40.015Z,99.90
2018-04-14T21:47:07.472Z,99.90
2018-04-14T21:49:34.923Z,99.90
2018-04-14T21:52:02.421Z,99.90
2018-04-14T21:54:29.900Z,99.90
2018-04-14T21:56:57.359Z,99.90
2018-04-14T21:59:24.846Z,99.90
2018-04-14T22:01:52.329Z,99.90
2018-04-14T22:04:19.776Z,99.90
2018-04-14T22:06:47.236Z,99.90
2018-04-14T22:09:14.732Z,99.90
2018-04-14T22:11:42.185Z,99.90
2018-04-14T22:14:09.683Z,99.90
2018-04-14T22:16:37.159Z,99.90
2018-04-14T22:19:04.618Z,99.90
2018-04-14T22:21:32.080Z,99.90
2018-04-14T22:23:59.550Z,99.90
2018-04-14T22:26:27.071Z,99.90
2018-04-14T22:28:54.529Z,99.90
2018-04-14T22:31:22.011Z,99.90
2018-04-14T22:33:49.476Z,99.90
2018-04-14T22:36:16.955Z,99.90
2018-04-14T22:38:44.523Z,99.90
2018-04-14T22:41:12.095Z,99.90
2018-04-14T22:43:39.567Z,99.90
2018-04-14T22:46:07.124Z,99.90
2018-04-14T22:48:34.595Z,99.90
2018-04-14T22:51:02.059Z,99.90
2018-04-14T22:53:29.651Z,99.90
2018-04-14T22:55:57.126Z,99.90
2018-04-14T22:58:24.705Z,99.90
2018-04-14T23:00:52.175Z,99.90
2018-04-14T23:03:19.755Z,99.90
2018-04-14T23:05:47.234Z,99.90
2018-04-14T23:08:14.784Z,99.90
2018-04-14T23:10:42.255Z,99.90
2018-04-14T23:13:09.742Z,99.90
2018-04-14T23:15:37.215Z,99.90
2018-04-14T23:18:04.768Z,99.90
2018-04-14T23:20:32.240Z,99.90
2018-04-14T23:22:59.695Z,99.90
2018-04-14T23:25:27.183Z,99.90
2018-04-14T23:27:54.656Z,99.90
2018-04-14T23:30:22.128Z,99.90
2018-04-14T23:32:49.596Z,99.90
2018-04-14T23:35:17.063Z,99.90
2018-04-14T23:37:44.536Z,99.90
2018-04-14T23:40:12.031Z,99.90
2018-04-14T23:42:39.594Z,99.90
2018-04-14T23:45:07.081Z,99.90
2018-04-14T23:47:35.327Z,99.90
2018-04-14T23:50:02.830Z,99.90
2018-04-14T23:52:30.384Z,99.90
2018-04-14T23:54:57.848Z,99.90
2018-04-14T23:57:25.322Z,99.90
2018-04-14T23:59:52.787Z,99.90
